Time;durP1;ratioP1;P1;durP2;ratioP2;P2;SDS_P1;SDS_P2;PMS_P1;PMS_P2;Temp;Humidity;BMP_temperature;BMP_pressure;BME280_temperature;BME280_humidity;BME280_pressure;Samples;Min_cycle;Max_cycle;Signal;HPM_P1;HPM_P2
2021/12/02 00:01:12;;;;;;;61.37;27.73;;;;;;;-0.96;100.00;60707.91;5094813;28;20458;-76
2021/12/02 00:03:42;;;;;;;60.53;28.07;;;;;;;-0.37;100.00;60769.31;5094917;28;20875;-77
2021/12/02 00:06:15;;;;;;;62.53;30.60;;;;;;;-0.38;100.00;60768.25;5095383;28;20434;-74
2021/12/02 00:08:46;;;;;;;68.77;31.20;;;;;;;-1.09;100.00;60691.66;5095279;28;20433;-77
2021/12/02 00:11:14;;;;;;;75.00;33.23;;;;;;;-0.32;100.00;60772.13;5076754;28;20485;-75
2021/12/02 00:13:54;;;;;;;62.43;30.63;;;;;;;-0.47;100.00;60756.22;5094798;28;20473;-78
2021/12/02 00:16:34;;;;;;;73.77;32.40;;;;;;;-0.45;100.00;60755.84;5095755;28;20445;-78
2021/12/02 00:22:01;;;;;;;66.23;29.20;;;;;;;-0.35;100.00;60773.94;5095875;28;20464;-78
2021/12/02 00:27:16;;;;;;;57.20;26.50;;;;;;;-0.33;100.00;60771.06;5095041;28;20515;-75
2021/12/02 00:29:50;;;;;;;40.57;20.43;;;;;;;-0.27;100.00;60777.94;5094780;28;20428;-75
2021/12/02 00:32:29;;;;;;;46.70;23.53;;;;;;;-0.28;100.00;60776.88;5093285;28;20433;-78
2021/12/02 00:35:02;;;;;;;53.37;24.13;;;;;;;-0.29;100.00;60772.78;5094658;28;20963;-77
2021/12/02 00:37:31;;;;;;;46.67;24.30;;;;;;;-0.51;100.00;60752.00;5094336;28;20463;-76
2021/12/02 00:40:01;;;;;;;41.47;19.30;;;;;;;-1.35;100.00;60663.63;5093912;28;20473;-77
2021/12/02 00:42:35;;;;;;;33.87;16.30;;;;;;;-0.67;100.00;60735.06;5094173;28;20434;-78
2021/12/02 00:45:08;;;;;;;27.80;14.83;;;;;;;-0.59;100.00;60743.53;5094243;28;20434;-75
2021/12/02 00:47:39;;;;;;;35.57;15.67;;;;;;;-0.43;100.00;60762.97;5093899;28;20433;-75
2021/12/02 00:50:08;;;;;;;33.13;16.30;;;;;;;-0.54;100.00;60743.81;5093994;28;20556;-76
2021/12/02 00:52:37;;;;;;;25.50;14.17;;;;;;;-0.84;100.00;60719.56;5094092;28;20438;-75
2021/12/02 00:55:10;;;;;;;27.63;14.37;;;;;;;-1.13;100.00;60687.44;5094505;28;20441;-77
2021/12/02 00:57:43;;;;;;;28.03;15.00;;;;;;;-0.46;100.00;60757.81;5093801;28;20456;-75
2021/12/02 01:00:26;;;;;;;34.17;17.53;;;;;;;-1.30;100.00;60673.91;5094568;28;20441;-75
2021/12/02 01:09:27;;;;;;;28.13;14.67;;;;;;;-1.87;100.00;60611.66;5093126;28;20884;-76
2021/12/02 01:12:03;;;;;;;26.70;13.70;;;;;;;-0.64;100.00;60743.75;5096299;28;20441;-77
2021/12/02 01:17:23;;;;;;;28.60;14.53;;;;;;;-0.14;100.00;60786.69;5092426;28;20586;-77
2021/12/02 01:19:52;;;;;;;26.53;12.70;;;;;;;-0.04;100.00;60801.78;5093834;28;20458;-76
2021/12/02 01:22:23;;;;;;;24.90;12.93;;;;;;;-1.25;100.00;60674.75;5093766;28;20434;-78
2021/12/02 01:25:02;;;;;;;28.53;13.80;;;;;;;0.00;100.00;60804.03;5098374;28;20446;-76
2021/12/02 01:27:30;;;;;;;35.67;15.77;;;;;;;0.00;100.00;60808.50;5094554;28;20461;-76
2021/12/02 01:30:09;;;;;;;26.27;13.70;;;;;;;-1.32;100.00;60667.31;5093756;28;20871;-78
2021/12/02 01:32:43;;;;;;;25.87;13.50;;;;;;;-0.11;100.00;60794.34;5093567;28;20434;-74
2021/12/02 01:35:16;;;;;;;27.97;13.97;;;;;;;-0.80;100.00;60721.81;5093949;28;20510;-77
2021/12/02 01:37:49;;;;;;;26.97;14.37;;;;;;;-0.23;100.00;60781.63;5093864;28;20442;-79
2021/12/02 01:40:20;;;;;;;30.30;14.67;;;;;;;-0.88;100.00;60718.88;5093262;28;20542;-79
2021/12/02 01:42:53;;;;;;;27.57;15.20;;;;;;;-0.35;100.00;60773.94;5093483;28;20495;-79
2021/12/02 01:48:26;;;;;;;28.10;14.47;;;;;;;-0.49;100.00;60754.09;5093058;28;21033;-77
2021/12/02 01:51:18;;;;;;;29.20;13.90;;;;;;;-2.16;100.00;60581.00;5093114;28;20499;-79
2021/12/02 01:56:43;;;;;;;31.70;14.17;;;;;;;-0.59;100.00;60746.03;5092874;28;20453;-76
2021/12/02 01:59:16;;;;;;;25.00;13.73;;;;;;;-0.60;100.00;60742.47;5093034;28;20437;-76
2021/12/02 02:04:30;;;;;;;26.00;13.30;;;;;;;-0.71;100.00;60728.84;5093245;28;20437;-78
2021/12/02 02:07:05;;;;;;;24.13;13.43;;;;;;;-0.69;100.00;60730.44;5092930;28;20507;-75
2021/12/02 02:09:45;;;;;;;28.20;13.93;;;;;;;-2.61;100.00;60532.03;5092907;28;20494;-77
2021/12/02 02:12:15;;;;;;;26.87;13.17;;;;;;;-0.72;100.00;60725.28;5092947;28;20438;-76
2021/12/02 02:14:47;;;;;;;22.73;12.70;;;;;;;-1.65;100.00;60639.94;5092555;28;20865;-77
2021/12/02 02:17:23;;;;;;;28.33;13.70;;;;;;;-0.63;100.00;60742.31;5092107;28;20810;-76
2021/12/02 02:23:04;;;;;;;20.13;10.27;;;;;;;-0.56;100.00;60749.22;5091280;28;20437;-78
2021/12/02 02:25:51;;;;;;;22.50;11.43;;;;;;;-0.58;100.00;60749.59;5092426;28;20997;-78
2021/12/02 02:28:20;;;;;;;24.30;11.13;;;;;;;-0.52;100.00;60751.47;5092388;28;20955;-77
2021/12/02 02:30:52;;;;;;;20.60;11.33;;;;;;;-0.50;100.00;60755.56;5092887;28;20436;-78
2021/12/02 02:33:33;;;;;;;21.50;10.70;;;;;;;-1.91;100.00;60610.44;5093111;28;20482;-77
2021/12/02 02:36:04;;;;;;;28.50;9.20;;;;;;;-0.27;100.00;60777.41;5092674;28;20863;-75
2021/12/02 02:41:22;;;;;;;20.63;10.20;;;;;;;-0.30;100.00;60779.25;5087349;28;20445;-77
2021/12/02 02:44:01;;;;;;;18.10;9.67;;;;;;;-0.38;100.00;60770.78;5092882;28;20472;-76
2021/12/02 02:46:37;;;;;;;24.20;11.03;;;;;;;-0.07;100.00;60798.59;5093324;28;20425;-77
2021/12/02 02:49:12;;;;;;;24.63;11.53;;;;;;;-0.48;100.00;60757.69;5092661;28;20952;-78
2021/12/02 02:51:43;;;;;;;22.07;10.20;;;;;;;-0.41;100.00;60762.59;5092233;28;20514;-77
2021/12/02 02:54:38;;;;;;;19.90;10.27;;;;;;;-0.35;100.00;60771.97;5074177;28;20480;-77
2021/12/02 02:57:15;;;;;;;22.23;10.63;;;;;;;-0.51;100.00;60754.50;5092977;28;20438;-74
2021/12/02 02:59:58;;;;;;;24.90;12.53;;;;;;;-0.42;100.00;60761.53;5074412;28;20930;-77
2021/12/02 03:02:31;;;;;;;25.83;12.80;;;;;;;-0.56;100.00;60746.72;5092169;28;20963;-79
2021/12/02 03:05:09;;;;;;;25.63;13.43;;;;;;;-0.80;100.00;60726.81;5091976;28;20572;-75
2021/12/02 03:07:46;;;;;;;27.70;13.80;;;;;;;-0.61;100.00;60741.41;5092344;28;20430;-76
2021/12/02 03:10:28;;;;;;;29.97;15.60;;;;;;;-0.76;100.00;60726.06;5092537;28;20441;-77
2021/12/02 03:12:59;;;;;;;208.40;66.73;;;;;;;-1.10;100.00;60690.06;5073607;28;20452;-77
2021/12/02 03:18:15;;;;;;;50.43;21.57;;;;;;;-0.76;100.00;60720.53;5091776;28;20472;-77
2021/12/02 03:20:43;;;;;;;49.53;22.03;;;;;;;-0.94;100.00;60710.03;5092066;28;20437;-76
2021/12/02 03:23:10;;;;;;;33.73;14.83;;;;;;;-2.86;100.00;60513.09;5093723;28;20433;-78
2021/12/02 03:25:38;;;;;;;31.77;16.70;;;;;;;-1.21;100.00;60678.97;5091569;28;20519;-77
2021/12/02 03:28:06;;;;;;;32.87;16.20;;;;;;;-1.83;100.00;60613.41;5090758;28;20470;-77
2021/12/02 03:30:38;;;;;;;36.00;18.23;;;;;;;-3.51;100.00;60432.56;5092391;28;20855;-77
2021/12/02 03:33:07;;;;;;;33.67;18.80;;;;;;;-1.77;100.00;60619.75;5096767;28;20448;-76
2021/12/02 03:35:35;;;;;;;37.43;17.80;;;;;;;-1.52;100.00;60648.66;5073514;28;20956;-78
2021/12/02 03:38:24;;;;;;;40.47;19.20;;;;;;;-1.61;100.00;60636.66;5091112;28;20475;-76
2021/12/02 03:40:54;;;;;;;33.37;16.50;;;;;;;-2.47;100.00;60550.75;5091481;28;20451;-78
2021/12/02 03:43:23;;;;;;;39.77;20.00;;;;;;;-1.53;100.00;60650.13;5091101;28;20437;-77
2021/12/02 03:45:51;;;;;;;49.27;25.37;;;;;;;-1.65;100.00;60631.91;5091333;28;20433;-76
2021/12/02 03:48:19;;;;;;;50.77;22.47;;;;;;;-1.46;100.00;60652.53;5091545;28;20449;-77
2021/12/02 03:50:46;;;;;;;133.63;40.30;;;;;;;-1.53;100.00;60647.63;5091557;28;20499;-78
2021/12/02 03:53:13;;;;;;;79.73;26.50;;;;;;;-2.12;100.00;60577.75;5093457;28;20442;-77
2021/12/02 03:55:42;;;;;;;117.03;35.90;;;;;;;-1.59;100.00;60641.28;5092404;28;20494;-77
2021/12/02 04:00:53;;;;;;;81.93;37.93;;;;;;;-1.76;100.00;60621.34;5091116;28;20449;-78
2021/12/02 04:03:23;;;;;;;79.97;34.37;;;;;;;-1.81;100.00;60618.00;5091303;28;20526;-77
2021/12/02 04:05:54;;;;;;;105.33;34.93;;;;;;;-2.01;100.00;60596.88;5073240;28;20453;-77
2021/12/02 04:08:29;;;;;;;115.27;40.17;;;;;;;-1.72;100.00;60625.03;5090909;28;20545;-77
2021/12/02 04:11:00;;;;;;;79.70;29.77;;;;;;;-1.56;100.00;60644.44;5091051;28;20437;-76
2021/12/02 04:13:34;;;;;;;41.87;19.03;;;;;;;-1.56;100.00;60641.94;5091274;28;20442;-76
2021/12/02 04:16:13;;;;;;;48.67;23.90;;;;;;;-1.51;100.00;60644.75;5091817;28;21018;-78
2021/12/02 04:18:43;;;;;;;29.87;14.77;;;;;;;-1.70;100.00;60629.63;5090818;28;20445;-76
2021/12/02 04:21:12;;;;;;;33.60;17.77;;;;;;;-1.62;100.00;60635.06;5090882;28;20892;-76
2021/12/02 04:23:40;;;;;;;29.37;14.10;;;;;;;-1.59;100.00;60643.78;5090604;28;20442;-76
2021/12/02 04:26:09;;;;;;;37.43;15.50;;;;;;;-1.61;100.00;60641.66;5091576;28;20446;-78
2021/12/02 04:28:41;;;;;;;31.93;16.27;;;;;;;-2.93;100.00;60503.22;5091424;28;20457;-76
2021/12/02 04:31:11;;;;;;;38.53;18.83;;;;;;;-1.57;100.00;60643.41;5072965;28;20438;-76
2021/12/02 04:33:38;;;;;;;43.93;21.33;;;;;;;-1.43;100.00;60660.69;5072477;28;20446;-77
2021/12/02 04:36:07;;;;;;;42.87;21.17;;;;;;;-1.30;100.00;60669.44;5090714;28;20438;-78
2021/12/02 04:38:45;;;;;;;56.40;26.20;;;;;;;-2.78;100.00;60514.06;5090292;28;20445;-75
2021/12/02 04:41:17;;;;;;;55.50;24.73;;;;;;;-1.95;100.00;60598.22;5093483;28;20449;-76
2021/12/02 04:43:46;;;;;;;44.20;23.17;;;;;;;-1.22;100.00;60677.91;5094226;28;20461;-79
2021/12/02 04:46:14;;;;;;;48.33;23.63;;;;;;;-2.97;100.00;60494.00;5093771;28;20858;-78
2021/12/02 04:48:42;;;;;;;48.97;24.03;;;;;;;-1.20;100.00;60679.50;5094103;28;20441;-78
2021/12/02 04:51:09;;;;;;;56.67;25.83;;;;;;;-2.58;100.00;60532.72;5094326;28;20441;-76
2021/12/02 04:53:38;;;;;;;48.03;23.43;;;;;;;-2.18;100.00;60576.94;5094125;28;20528;-77
2021/12/02 04:56:05;;;;;;;47.87;22.90;;;;;;;-1.21;100.00;60678.97;5075879;28;20448;-75
2021/12/02 04:58:33;;;;;;;59.70;30.87;;;;;;;-1.78;100.00;60613.69;5094155;28;20971;-75
2021/12/02 05:01:04;;;;;;;55.37;29.70;;;;;;;-1.14;100.00;60686.38;5094033;28;20858;-76
2021/12/02 05:03:31;;;;;;;56.50;29.50;;;;;;;-1.68;100.00;60629.25;5076065;28;20441;-76
2021/12/02 05:06:00;;;;;;;48.23;24.20;;;;;;;-2.23;100.00;60581.63;5093986;28;20438;-75
2021/12/02 05:08:32;;;;;;;46.00;23.33;;;;;;;-1.24;100.00;60675.78;5094416;28;20494;-78
2021/12/02 05:11:02;;;;;;;41.57;22.47;;;;;;;-1.22;100.00;60677.91;5093534;28;20514;-75
2021/12/02 05:13:34;;;;;;;40.33;22.60;;;;;;;-1.23;100.00;60676.84;5094300;28;20437;-76
2021/12/02 05:16:03;;;;;;;47.37;23.93;;;;;;;-1.51;100.00;60651.69;5076288;28;20441;-75
2021/12/02 05:18:35;;;;;;;54.97;24.97;;;;;;;-1.23;100.00;60676.31;5093984;28;20915;-77
2021/12/02 05:21:05;;;;;;;58.83;26.00;;;;;;;-2.37;100.00;60556.34;5094223;28;20434;-78
2021/12/02 05:23:33;;;;;;;63.63;30.53;;;;;;;-1.56;100.00;60639.44;5094331;28;20425;-78
2021/12/02 05:26:03;;;;;;;62.23;30.87;;;;;;;-1.14;100.00;60685.84;5075527;28;20446;-77
2021/12/02 05:28:31;;;;;;;65.93;30.13;;;;;;;-2.36;100.00;60560.41;5093549;28;20477;-79
2021/12/02 05:31:03;;;;;;;68.00;27.93;;;;;;;-1.73;100.00;60628.97;5093406;28;20887;-76
2021/12/02 05:33:36;;;;;;;65.43;30.97;;;;;;;-1.09;100.00;60694.16;5100855;28;20422;-77
2021/12/02 05:36:04;;;;;;;64.67;30.00;;;;;;;-1.01;100.00;60700.13;5094444;28;20509;-76
2021/12/02 05:38:32;;;;;;;68.77;32.97;;;;;;;-1.01;100.00;60697.63;5094960;28;20444;-78
2021/12/02 05:41:02;;;;;;;66.70;32.53;;;;;;;-2.44;100.00;60548.94;5097931;28;20564;-80
2021/12/02 05:43:32;;;;;;;71.43;33.40;;;;;;;-1.03;100.00;60698.03;5093384;28;20441;-77
2021/12/02 05:45:59;;;;;;;68.37;33.53;;;;;;;-0.99;100.00;60709.75;5093547;28;20430;-78
2021/12/02 05:48:29;;;;;;;111.43;50.17;;;;;;;-1.07;100.00;60693.78;5075221;28;20509;-76
2021/12/02 05:50:58;;;;;;;74.83;36.63;;;;;;;-1.01;100.00;60702.63;5093380;28;20437;-78
2021/12/02 05:53:26;;;;;;;77.87;37.20;;;;;;;-1.68;100.00;60634.25;5093369;28;20445;-75
2021/12/02 05:55:53;;;;;;;113.97;47.50;;;;;;;-1.19;100.00;60678.59;5093316;28;20534;-77
2021/12/02 05:58:21;;;;;;;95.07;42.67;;;;;;;-1.10;100.00;60690.59;5093134;28;20487;-77
2021/12/02 06:00:50;;;;;;;94.10;43.37;;;;;;;-0.87;100.00;60709.94;5093151;28;20438;-76
2021/12/02 06:03:17;;;;;;;93.30;44.60;;;;;;;-0.87;100.00;60716.91;5093256;28;20503;-75
2021/12/02 06:05:47;;;;;;;97.90;48.60;;;;;;;-0.78;100.00;60725.91;5093599;28;20430;-77
2021/12/02 06:10:59;;;;;;;66.17;30.90;;;;;;;-0.98;100.00;60697.75;5093021;28;20577;-77
2021/12/02 06:13:26;;;;;;;60.27;29.47;;;;;;;-0.25;100.00;60785.06;5092591;28;20441;-75
2021/12/02 06:15:54;;;;;;;56.43;26.23;;;;;;;0.09;100.00;60817.50;5092264;28;21022;-76
2021/12/02 06:18:22;;;;;;;61.27;29.40;;;;;;;1.15;100.00;60931.88;5092402;28;20944;-79
2021/12/02 06:20:54;;;;;;;60.23;26.67;;;;;;;1.71;100.00;60986.28;5074206;28;20473;-75
2021/12/02 06:23:26;;;;;;;54.47;25.80;;;;;;;1.73;100.00;60987.84;5092315;28;20445;-77
2021/12/02 06:25:54;;;;;;;47.13;25.47;;;;;;;3.83;100.00;61212.97;5092222;28;20473;-77
2021/12/02 06:28:22;;;;;;;57.97;26.53;;;;;;;4.33;100.00;61267.66;5073837;28;20477;-76
2021/12/02 06:30:50;;;;;;;63.70;33.53;;;;;;;5.34;100.00;61369.59;5092062;28;20944;-76
2021/12/02 06:33:18;;;;;;;56.50;32.63;;;;;;;5.68;100.00;61406.38;5091863;28;20453;-76
2021/12/02 06:35:45;;;;;;;64.07;36.13;;;;;;;6.57;100.00;61500.78;5094443;28;20485;-77
2021/12/02 06:38:12;;;;;;;82.67;38.43;;;;;;;6.36;100.00;61475.84;5092217;28;20446;-77
2021/12/02 06:40:45;;;;;;;77.83;35.93;;;;;;;5.54;100.00;61393.97;5092586;28;20469;-78
2021/12/02 06:43:14;;;;;;;66.17;30.97;;;;;;;6.52;100.00;61494.91;5092025;28;20494;-77
2021/12/02 06:45:41;;;;;;;56.77;29.40;;;;;;;6.01;100.00;61430.41;5091999;28;20446;-76
2021/12/02 06:48:10;;;;;;;42.80;24.80;;;;;;;7.24;100.00;61571.75;5092661;28;20437;-77
2021/12/02 06:50:38;;;;;;;44.80;23.27;;;;;;;7.40;100.00;61588.84;5091686;28;20499;-75
2021/12/02 06:53:05;;;;;;;54.47;29.13;;;;;;;5.79;100.00;61418.13;5091729;28;20445;-77
2021/12/02 06:55:33;;;;;;;57.07;32.77;;;;;;;4.44;100.00;61271.78;5091711;28;20485;-79
2021/12/02 06:58:11;;;;;;;58.40;31.67;;;;;;;5.67;100.00;61407.84;5091774;28;20955;-76
2021/12/02 07:00:43;;;;;;;42.83;25.87;;;;;;;5.48;100.00;61387.06;5091727;28;20453;-77
2021/12/02 07:03:19;;;;;;;38.93;20.57;;;;;;;4.75;100.00;61302.28;5091576;28;20442;-75
2021/12/02 07:05:48;;;;;;;40.40;23.60;;;;;;;5.82;100.00;61425.81;5072683;28;20913;-75
2021/12/02 07:08:22;;;;;;;46.77;24.60;;;;;;;6.23;100.00;61463.97;5091967;28;20425;-77
2021/12/02 07:10:50;;;;;;;39.90;21.97;;;;;;;5.37;100.00;61375.34;5092195;28;20461;-77
2021/12/02 07:13:20;;;;;;;42.23;23.03;;;;;;;5.76;100.00;61414.91;5091566;28;20848;-77
2021/12/02 07:15:52;;;;;;;43.83;23.57;;;;;;;5.83;100.00;61422.41;5091059;28;20511;-76
2021/12/02 07:18:22;;;;;;;45.47;26.37;;;;;;;5.28;100.00;61363.22;5091537;28;20456;-76
2021/12/02 07:20:54;;;;;;;46.23;27.10;;;;;;;4.80;100.00;61312.63;5091494;28;20537;-77
2021/12/02 07:23:22;;;;;;;49.53;26.80;;;;;;;4.38;100.00;61270.44;5074189;28;20522;-77
2021/12/02 07:25:52;;;;;;;38.07;22.57;;;;;;;2.64;100.00;61084.47;5073365;28;20492;-79
2021/12/02 07:28:21;;;;;;;40.40;21.13;;;;;;;3.18;100.00;61141.34;5090973;28;20457;-76
2021/12/02 07:30:54;;;;;;;34.97;19.57;;;;;;;3.62;100.00;61188.13;5091548;28;20974;-76
2021/12/02 07:33:24;;;;;;;37.63;21.73;;;;;;;3.73;100.00;61199.28;5091525;28;20491;-77
2021/12/02 07:35:53;;;;;;;49.17;26.57;;;;;;;3.31;100.00;61155.69;5090728;28;20493;-78
2021/12/02 07:38:24;;;;;;;57.00;27.40;;;;;;;3.70;100.00;61196.09;5091309;28;20429;-77
2021/12/02 07:43:41;;;;;;;57.87;31.03;;;;;;;3.92;100.00;61220.03;5095723;28;20469;-76
2021/12/02 07:46:17;;;;;;;60.20;34.87;;;;;;;3.55;100.00;61180.69;5094583;28;20899;-78
2021/12/02 07:48:46;;;;;;;75.90;38.10;;;;;;;3.36;100.00;61160.47;5096895;28;20426;-77
2021/12/02 07:51:17;;;;;;;37.13;21.27;;;;;;;3.31;100.00;61155.69;5091350;28;20460;-77
2021/12/02 07:53:51;;;;;;;30.47;16.37;;;;;;;1.67;100.00;60979.50;5091526;28;20932;-76
2021/12/02 07:56:24;;;;;;;26.27;14.13;;;;;;;1.79;100.00;60994.75;5091553;28;20818;-77
2021/12/02 07:58:53;;;;;;;25.27;13.63;;;;;;;2.91;100.00;61112.63;5091492;28;20456;-79
2021/12/02 08:01:21;;;;;;;16.43;10.57;;;;;;;3.01;100.00;61125.78;5090940;28;20932;-76
2021/12/02 08:03:51;;;;;;;21.27;10.50;;;;;;;3.12;100.00;61137.47;5091086;28;20433;-79
2021/12/02 08:06:19;;;;;;;27.67;14.03;;;;;;;3.24;100.00;61147.72;5073023;28;20993;-79
2021/12/02 08:08:47;;;;;;;29.67;14.70;;;;;;;3.28;100.00;61151.97;5091130;28;20461;-76
2021/12/02 08:11:19;;;;;;;28.93;14.13;;;;;;;3.57;100.00;61185.31;5090941;28;20445;-79
2021/12/02 08:13:50;;;;;;;29.20;15.00;;;;;;;3.75;100.00;61201.94;5090969;28;20461;-78
2021/12/02 08:16:27;;;;;;;33.33;15.77;;;;;;;3.86;100.00;61211.13;5094059;28;20485;-79
2021/12/02 08:18:55;;;;;;;34.63;20.73;;;;;;;3.86;100.00;61213.66;5094957;28;20433;-78
2021/12/02 08:21:24;;;;;;;40.47;21.30;;;;;;;3.93;100.00;61221.09;5094902;28;20438;-80
2021/12/02 08:23:56;;;;;;;42.33;23.27;;;;;;;4.17;100.00;61246.63;5095009;28;20456;-77
2021/12/02 08:26:23;;;;;;;43.83;22.57;;;;;;;4.35;100.00;61267.78;5095590;28;20444;-77
2021/12/02 08:28:57;;;;;;;42.43;22.80;;;;;;;4.49;100.00;61279.63;5094753;28;20461;-79
2021/12/02 08:31:26;;;;;;;38.10;20.90;;;;;;;4.63;100.00;61297.06;5095421;28;20426;-78
2021/12/02 08:33:55;;;;;;;35.20;20.50;;;;;;;4.58;100.00;61286.69;5094813;28;20495;-77
2021/12/02 08:36:25;;;;;;;36.10;19.57;;;;;;;4.63;100.00;61295.06;5094448;28;20860;-77
2021/12/02 08:38:52;;;;;;;36.70;19.67;;;;;;;5.32;100.00;61368.00;5093764;28;20481;-77
2021/12/02 08:41:21;;;;;;;36.10;19.60;;;;;;;5.18;100.00;61355.09;5094339;28;20469;-77
2021/12/02 08:43:49;;;;;;;45.37;22.83;;;;;;;5.06;100.00;61340.84;5094399;28;20476;-78
2021/12/02 08:46:21;;;;;;;35.53;20.57;;;;;;;4.90;100.00;61325.81;5094388;28;20882;-79
2021/12/02 08:48:54;;;;;;;42.73;21.97;;;;;;;5.23;100.00;61358.44;5094104;28;20453;-78
2021/12/02 08:51:21;;;;;;;50.73;24.83;;;;;;;5.15;100.00;61352.44;5094505;28;20486;-77
2021/12/02 08:53:49;;;;;;;46.63;23.57;;;;;;;5.26;100.00;61364.16;5094095;28;20448;-77
2021/12/02 08:56:16;;;;;;;51.00;23.73;;;;;;;4.93;100.00;61326.47;5094120;28;20522;-78
2021/12/02 08:58:48;;;;;;;54.57;27.17;;;;;;;4.85;100.00;61317.97;5094070;28;20944;-77
2021/12/02 09:01:17;;;;;;;50.63;28.90;;;;;;;4.60;100.00;61281.25;5075849;28;20433;-77
2021/12/02 09:03:47;;;;;;;56.37;31.33;;;;;;;4.65;100.00;61296.66;5093703;28;20430;-77
2021/12/02 09:06:21;;;;;;;47.37;27.23;;;;;;;4.37;100.00;61264.34;5094070;28;20425;-77
2021/12/02 09:08:53;;;;;;;45.87;24.37;;;;;;;5.00;100.00;61333.94;5094211;28;20430;-78
2021/12/02 09:11:33;;;;;;;44.47;24.93;;;;;;;4.95;100.00;61333.66;5075628;28;20438;-76
2021/12/02 09:14:05;;;;;;;39.43;22.53;;;;;;;4.96;100.00;61327.16;5093991;28;20967;-76
2021/12/02 09:16:33;;;;;;;49.77;24.93;;;;;;;5.07;100.00;61346.44;5094304;28;20477;-78
2021/12/02 09:19:00;;;;;;;46.60;24.47;;;;;;;5.08;100.00;61347.50;5095295;28;20437;-76
2021/12/02 09:21:31;;;;;;;44.20;22.93;;;;;;;5.24;100.00;61361.47;5093781;28;20956;-77
2021/12/02 09:26:43;;;;;;;35.30;18.00;;;;;;;5.53;100.00;61395.47;5091832;28;20825;-78
2021/12/02 09:29:11;;;;;;;28.97;15.40;;;;;;;5.07;100.00;61344.44;5093273;28;20469;-79
2021/12/02 09:31:45;;;;;;;32.47;16.87;;;;;;;5.73;100.00;61416.78;5093423;28;20432;-78
2021/12/02 09:34:14;;;;;;;25.47;12.93;;;;;;;5.85;100.00;61424.53;5093508;28;20445;-77
2021/12/02 09:36:46;;;;;;;21.00;11.47;;;;;;;5.67;100.00;61407.84;5093098;28;20488;-79
2021/12/02 09:39:20;;;;;;;24.63;12.03;;;;;;;5.70;100.00;61408.50;5093841;28;20900;-76
2021/12/02 09:41:51;;;;;;;22.57;11.10;;;;;;;5.78;100.00;61419.56;5093130;28;20805;-80
2021/12/02 09:44:22;;;;;;;18.20;8.60;;;;;;;5.57;100.00;61399.72;5093751;28;20817;-77
2021/12/02 09:46:56;;;;;;;11.77;3.97;;;;;;;6.13;100.00;61455.84;5075454;28;20529;-78
2021/12/02 09:49:26;;;;;;;9.83;4.97;;;;;;;6.21;100.00;61464.38;5093361;28;20422;-78
2021/12/02 09:52:02;;;;;;;12.47;5.90;;;;;;;6.06;100.00;61451.44;5096848;28;20469;-77
2021/12/02 09:54:37;;;;;;;12.00;7.03;;;;;;;6.38;100.00;61483.03;5100005;28;20449;-80
2021/12/02 09:57:07;;;;;;;16.47;8.20;;;;;;;6.37;100.00;61478.91;5099397;28;20495;-76
2021/12/02 09:59:47;;;;;;;13.87;7.20;;;;;;;6.49;100.00;61494.78;5093940;28;21039;-79
2021/12/02 10:02:17;;;;;;;8.60;5.77;;;;;;;6.60;100.00;61503.97;5092723;28;20495;-76
2021/12/02 10:04:50;;;;;;;17.80;6.90;;;;;;;6.54;100.00;61502.63;5093045;28;20503;-77
2021/12/02 10:07:28;;;;;;;11.33;5.93;;;;;;;6.30;100.00;61471.44;5093015;28;20438;-78
2021/12/02 10:10:02;;;;;;;9.90;5.70;;;;;;;6.24;100.00;61465.03;5092862;28;20507;-77
2021/12/02 10:12:33;;;;;;;12.70;5.50;;;;;;;6.13;100.00;61458.38;5092890;28;20445;-76
2021/12/02 10:15:02;;;;;;;8.27;4.80;;;;;;;6.27;100.00;61470.75;5074855;28;20503;-78
2021/12/02 10:17:33;;;;;;;7.37;4.37;;;;;;;6.39;100.00;61481.03;5092749;28;20489;-79
2021/12/02 10:20:14;;;;;;;8.67;5.03;;;;;;;6.78;100.00;61517.59;5092771;28;20449;-78
2021/12/02 10:23:06;;;;;;;11.87;5.03;;;;;;;7.60;100.00;61610.19;5092241;28;20438;-80
2021/12/02 10:25:36;;;;;;;8.70;4.93;;;;;;;8.24;100.00;61677.47;5092389;28;20552;-78
2021/12/02 10:28:07;;;;;;;10.50;5.17;;;;;;;6.70;100.00;61514.13;5092504;28;20457;-78
2021/12/02 10:30:35;;;;;;;7.50;4.53;;;;;;;8.70;100.00;61721.59;5092474;28;20512;-79
2021/12/02 10:33:02;;;;;;;13.37;5.83;;;;;;;10.36;100.00;61903.25;5074220;28;20524;-78
2021/12/02 10:35:42;;;;;;;10.63;5.50;;;;;;;10.80;100.00;61950.41;5092664;28;20477;-78
2021/12/02 10:38:33;;;;;;;10.23;5.50;;;;;;;11.07;100.00;61978.25;5092095;28;20441;-77
2021/12/02 10:41:03;;;;;;;8.17;5.50;;;;;;;11.70;100.00;62048.34;5093309;28;20231;-79
2021/12/02 10:43:32;;;;;;;12.00;4.47;;;;;;;12.31;100.00;62111.25;5092101;28;20704;-79
2021/12/02 10:46:17;;;;;;;7.97;4.90;;;;;;;13.06;100.00;62191.22;5092324;28;20626;-77
2021/12/02 10:48:47;;;;;;;7.80;4.50;;;;;;;13.01;100.00;62185.31;5092174;28;20282;-77
2021/12/02 10:51:40;;;;;;;8.80;5.10;;;;;;;12.81;100.00;62161.28;5092051;28;20207;-77
2021/12/02 10:54:18;;;;;;;9.70;5.30;;;;;;;14.11;100.00;62300.41;5074159;28;20199;-78
2021/12/02 10:56:48;;;;;;;8.60;5.67;;;;;;;14.37;100.00;62331.47;5091781;28;20288;-78
2021/12/02 10:59:30;;;;;;;9.43;5.47;;;;;;;14.66;100.00;62364.16;5091898;28;20295;-80
2021/12/02 11:01:59;;;;;;;13.60;6.27;;;;;;;15.14;100.00;62418.91;5092271;28;20196;-79
2021/12/02 11:04:35;;;;;;;11.83;6.43;;;;;;;13.82;100.00;62276.94;5092026;28;20199;-79
2021/12/02 11:07:02;;;;;;;12.40;6.50;;;;;;;12.49;100.00;62125.47;5092343;28;20594;-80
2021/12/02 11:09:34;;;;;;;14.70;8.47;;;;;;;13.59;100.00;62247.63;5091619;28;20272;-81
2021/12/02 11:12:20;;;;;;;14.00;8.43;;;;;;;13.32;100.00;62219.16;5092481;28;20560;-78
2021/12/02 11:15:07;;;;;;;18.47;9.00;;;;;;;12.54;100.00;62135.94;5091692;28;20646;-78
2021/12/02 11:17:37;;;;;;;11.63;7.10;;;;;;;12.32;100.00;62117.44;5091997;28;20238;-77
2021/12/02 11:20:08;;;;;;;15.17;7.00;;;;;;;11.73;100.00;62054.66;5091850;28;20643;-78
2021/12/02 11:22:54;;;;;;;11.30;6.67;;;;;;;11.01;100.00;61972.34;5091619;28;20229;-78
2021/12/02 11:25:24;;;;;;;10.90;7.07;;;;;;;11.68;100.00;62046.22;5092135;28;20196;-79
2021/12/02 11:27:56;;;;;;;12.17;7.47;;;;;;;12.63;100.00;62150.16;5091420;28;20215;-80
2021/12/02 11:30:24;;;;;;;15.57;6.23;;;;;;;12.98;100.00;62184.66;5091619;28;20670;-79
2021/12/02 11:32:56;;;;;;;10.73;6.80;;;;;;;14.46;100.00;62345.22;5091336;28;20555;-79
2021/12/02 11:35:31;;;;;;;12.50;7.40;;;;;;;13.54;100.00;62242.25;5091912;28;20651;-79
2021/12/02 11:38:03;;;;;;;14.67;7.43;;;;;;;15.55;100.00;62459.94;5092024;28;20198;-78
2021/12/02 11:40:38;;;;;;;12.83;6.80;;;;;;;14.84;100.00;62380.94;5091726;28;20240;-79
2021/12/02 11:43:07;;;;;;;13.60;7.43;;;;;;;14.20;100.00;62313.19;5091466;28;20194;-79
2021/12/02 11:45:43;;;;;;;11.80;6.17;;;;;;;15.46;100.00;62447.16;5091379;28;20196;-77
2021/12/02 11:48:12;;;;;;;14.93;9.00;;;;;;;15.77;100.00;62481.06;5091601;28;20207;-78
2021/12/02 11:50:40;;;;;;;16.40;7.80;;;;;;;15.85;100.00;62487.13;5094979;28;20199;-77
2021/12/02 11:53:09;;;;;;;10.97;7.13;;;;;;;16.75;100.00;62585.56;5095604;28;20202;-78
2021/12/02 11:55:53;;;;;;;15.07;6.73;;;;;;;16.88;100.00;62599.59;5095535;28;20289;-78
2021/12/02 11:58:22;;;;;;;15.50;6.00;;;;;;;16.70;100.00;62580.72;5096129;28;20199;-78
2021/12/02 12:00:52;;;;;;;11.77;5.73;;;;;;;17.07;100.00;62619.50;5097136;28;20257;-77
2021/12/02 12:03:24;;;;;;;8.57;5.77;;;;;;;17.39;100.00;62651.44;5102323;28;20195;-78
2021/12/02 12:05:56;;;;;;;9.77;5.77;;;;;;;18.37;100.00;62759.22;5099871;28;20211;-79
2021/12/02 12:08:34;;;;;;;10.10;5.97;;;;;;;18.44;100.00;62769.38;5095208;28;20207;-78
2021/12/02 12:11:26;;;;;;;15.57;6.77;;;;;;;18.73;100.00;62795.00;5095244;28;20203;-77
2021/12/02 12:13:55;;;;;;;10.10;6.50;;;;;;;18.70;100.00;62792.28;5095162;28;20199;-79
2021/12/02 12:16:27;;;;;;;15.47;6.30;;;;;;;18.46;100.00;62768.94;5095076;28;20236;-77
2021/12/02 12:18:56;;;;;;;11.87;6.50;;;;;;;17.91;100.00;62709.59;5094880;28;20232;-77